This is the latest recevied weather packets stored in our database for station/object OE-11373. If no packets are shown the sender has not sent any weather packets the latest 10 day(s).
| Time | Temp. | Humidity | Pressure | Rain* | Wind** | Luminosity | Snow |
|---|---|---|---|---|---|---|---|
| 1788143113 | 17.78° C | 68% | 851.6 hPa | - | - | - | - |
| 1788142286 | 18.33° C | 59% | 851.7 hPa | - | - | - | - |
| 1788141914 | 17.78° C | 60% | 851.7 hPa | - | - | - | - |
| 1788141314 | 16.11° C | 82% | 851.9 hPa | - | - | - | - |
| 1788140487 | 16.67° C | 72% | 852.1 hPa | - | - | - | - |
| 1788140114 | 16.11° C | 80% | 852.2 hPa | - | - | - | - |
| 1788139514 | 16.11° C | 83% | 852.2 hPa | - | - | - | - |
| 1788138686 | 16.11° C | 83% | 852.3 hPa | - | - | - | - |
| 1788138314 | 16.11° C | 81% | 852.4 hPa | - | - | - | - |
| 1788137714 | 16.67° C | 78% | 852.4 hPa | - | - | - | - |
| 1788136886 | 16.67° C | 78% | 852.4 hPa | - | - | - | - |
| 1788136514 | 16.67° C | 79% | 852.4 hPa | - | - | - | - |
| 1788135914 | 16.67° C | 76% | 852.5 hPa | - | - | - | - |
| 1788135087 | 17.78° C | 69% | 852.5 hPa | - | - | - | - |
| 1788134714 | 17.78° C | 69% | 852.4 hPa | - | - | - | - |
| 1788134114 | 18.33° C | 68% | 852.5 hPa | - | - | - | - |
| 1788133525 | 18.33° C | 68% | 852.5 hPa | - | - | - | - |
| 1788132913 | 17.78° C | 70% | 852.5 hPa | - | - | - | - |
| 1788132313 | 17.78° C | 70% | 852.5 hPa | - | - | - | - |
| 1788131714 | 17.78° C | 72% | 852.5 hPa | - | - | - | - |
| 1788131114 | 17.78° C | 73% | 852.5 hPa | - | - | - | - |
| 1788130514 | 17.78° C | 72% | 852.6 hPa | - | - | - | - |
| 1788129687 | 17.78° C | 71% | 852.6 hPa | - | - | - | - |
| 1788129314 | 17.78° C | 71% | 852.7 hPa | - | - | - | - |
| 1788128714 | 17.78° C | 72% | 852.8 hPa | - | - | - | - |
* Rain since midnight (hover to see other rain measurements)
** Current wind speed in m/s (hover to see current wind gust speed)